createdAt,value
2019-02-19T00:02:11.238Z,7.50
2019-02-19T00:07:15.433Z,7.60
2019-02-19T00:12:19.519Z,7.70
2019-02-19T00:17:24.484Z,7.70
2019-02-19T00:22:30.025Z,7.60
2019-02-19T00:27:35.057Z,7.60
2019-02-19T00:32:40.263Z,7.70
2019-02-19T00:37:45.469Z,7.80
2019-02-19T00:42:50.417Z,7.60
2019-02-19T00:47:55.793Z,7.60
2019-02-19T00:53:00.958Z,7.70
2019-02-19T00:58:05.964Z,7.70
2019-02-19T01:03:10.923Z,7.70
2019-02-19T01:08:17.273Z,7.60
2019-02-19T01:13:22.349Z,7.70
2019-02-19T01:18:27.681Z,7.60
2019-02-19T01:23:32.980Z,7.60
2019-02-19T01:28:38.211Z,7.60
2019-02-19T01:33:43.199Z,7.60
2019-02-19T01:38:48.298Z,7.60
2019-02-19T01:43:53.413Z,7.60
2019-02-19T01:48:58.433Z,7.60
2019-02-19T01:54:22.751Z,7.60
2019-02-19T01:59:26.029Z,7.60
2019-02-19T02:04:31.057Z,7.70
2019-02-19T02:09:37.096Z,7.70
2019-02-19T02:14:42.111Z,7.70
2019-02-19T02:19:46.569Z,7.60
2019-02-19T02:24:51.335Z,7.60
2019-02-19T02:29:56.378Z,7.50
2019-02-19T02:35:01.291Z,7.40
2019-02-19T02:40:06.717Z,7.30
2019-02-19T02:45:11.911Z,7.30
2019-02-19T02:50:17.051Z,7.30
2019-02-19T02:55:21.975Z,7.20
2019-02-19T03:00:26.803Z,7.20
2019-02-19T03:05:32.001Z,7.10
2019-02-19T03:10:38.182Z,7.20
2019-02-19T03:15:43.214Z,7.10
2019-02-19T03:20:48.275Z,7.10
2019-02-19T03:25:52.270Z,7.10
2019-02-19T03:30:56.311Z,7.20
2019-02-19T03:35:59.928Z,7.10
2019-02-19T03:41:03.553Z,7.10
2019-02-19T03:46:11.993Z,7.10
2019-02-19T03:51:15.288Z,7.00
2019-02-19T03:56:19.903Z,7.10
2019-02-19T04:01:24.039Z,7.10
2019-02-19T04:06:28.237Z,7.10
2019-02-19T04:11:32.536Z,7.10
2019-02-19T04:16:36.722Z,7.10
2019-02-19T04:21:40.673Z,7.20
2019-02-19T04:26:45.857Z,7.20
2019-02-19T04:31:49.852Z,7.20
2019-02-19T04:36:53.764Z,7.20
2019-02-19T04:41:57.720Z,7.20
2019-02-19T04:47:01.635Z,7.30
2019-02-19T04:52:08.391Z,7.40
2019-02-19T04:57:12.670Z,7.50
2019-02-19T05:02:18.293Z,7.50
2019-02-19T05:07:23.859Z,7.50
2019-02-19T05:12:30.282Z,7.50
2019-02-19T05:17:35.688Z,7.50
2019-02-19T05:22:40.885Z,7.60
2019-02-19T05:27:46.171Z,7.70
2019-02-19T05:32:51.310Z,7.70
2019-02-19T05:37:56.666Z,7.60
2019-02-19T05:43:01.704Z,7.80
2019-02-19T05:48:06.932Z,7.70
2019-02-19T05:53:12.213Z,7.80
2019-02-19T05:58:17.542Z,7.80
2019-02-19T06:03:22.712Z,7.80
2019-02-19T06:08:31.774Z,7.90
2019-02-19T06:13:37.714Z,7.90
2019-02-19T06:18:46.040Z,7.80
2019-02-19T06:23:52.673Z,7.90
2019-02-19T06:28:58.354Z,7.90
2019-02-19T06:34:04.656Z,7.90
2019-02-19T06:39:10.299Z,7.90
2019-02-19T06:44:15.564Z,7.90
2019-02-19T06:49:21.481Z,7.90
2019-02-19T06:54:26.570Z,7.80
2019-02-19T06:59:31.892Z,7.80
2019-02-19T07:04:48.128Z,7.70
2019-02-19T07:09:54.478Z,7.70
2019-02-19T07:15:00.854Z,7.70
2019-02-19T07:20:07.402Z,7.70
2019-02-19T07:25:12.715Z,7.80
2019-02-19T07:30:18.685Z,7.80
2019-02-19T07:35:23.665Z,7.70
2019-02-19T07:40:29.115Z,7.70
2019-02-19T07:45:33.219Z,7.80
2019-02-19T07:50:39.173Z,7.80
2019-02-19T07:55:45.314Z,7.60
2019-02-19T08:00:50.560Z,7.70
2019-02-19T08:05:55.886Z,7.70
2019-02-19T08:11:00.199Z,7.70
2019-02-19T08:16:04.626Z,7.60
2019-02-19T08:21:09.056Z,7.60
2019-02-19T08:26:12.556Z,7.70
2019-02-19T08:31:17.688Z,7.70
2019-02-19T08:36:21.952Z,7.70
2019-02-19T08:41:26.125Z,7.70
2019-02-19T08:46:30.224Z,7.80
2019-02-19T08:51:36.169Z,7.60
2019-02-19T08:56:40.465Z,7.80
2019-02-19T09:01:45.675Z,7.70
2019-02-19T09:06:51.048Z,7.70
2019-02-19T09:11:56.401Z,7.80
2019-02-19T09:17:00.620Z,7.80
2019-02-19T09:22:24.675Z,7.80
2019-02-19T09:27:29.964Z,7.80
2019-02-19T09:32:34.079Z,7.70
2019-02-19T09:37:39.343Z,7.80
2019-02-19T09:42:44.510Z,7.80
2019-02-19T09:47:49.543Z,8.00
2019-02-19T09:53:00.073Z,8.00
2019-02-19T09:58:01.833Z,8.10
2019-02-19T10:03:07.619Z,8.00
2019-02-19T10:08:13.095Z,8.10
2019-02-19T10:13:20.553Z,8.00
2019-02-19T10:18:26.567Z,8.10
2019-02-19T10:23:31.876Z,8.10
2019-02-19T10:28:37.595Z,8.00
2019-02-19T10:33:42.484Z,8.00
2019-02-19T10:38:47.926Z,8.00
2019-02-19T10:43:53.398Z,8.00
2019-02-19T10:48:58.333Z,8.00
2019-02-19T10:54:03.921Z,8.00
2019-02-19T10:59:09.585Z,8.10
2019-02-19T11:04:14.659Z,8.00
2019-02-19T11:09:20.019Z,8.20
2019-02-19T11:14:26.646Z,8.20
2019-02-19T11:19:32.171Z,8.30
2019-02-19T11:24:38.370Z,8.50
2019-02-19T11:29:43.931Z,8.70
2019-02-19T11:34:49.049Z,8.80
2019-02-19T11:39:54.243Z,8.90
2019-02-19T11:44:59.621Z,9.10
2019-02-19T11:50:05.321Z,9.10
2019-02-19T11:55:11.904Z,9.30
2019-02-19T12:00:21.720Z,9.40
2019-02-19T12:05:28.053Z,9.40
2019-02-19T12:10:33.349Z,9.50
2019-02-19T12:15:38.988Z,9.50
2019-02-19T12:20:42.759Z,9.60
2019-02-19T12:25:46.383Z,9.70
2019-02-19T12:30:51.117Z,9.70
2019-02-19T12:35:56.314Z,9.70
2019-02-19T12:41:01.407Z,9.80
2019-02-19T12:46:05.618Z,10.00
2019-02-19T12:51:09.905Z,10.00
2019-02-19T12:56:14.337Z,10.00
2019-02-19T13:01:17.648Z,10.20
2019-02-19T13:06:21.099Z,10.20
2019-02-19T13:11:25.493Z,10.30
2019-02-19T13:16:29.775Z,10.30
2019-02-19T13:21:33.823Z,10.50
2019-02-19T13:26:37.744Z,10.70
2019-02-19T13:31:42.538Z,10.70
2019-02-19T13:36:47.815Z,10.70
2019-02-19T13:41:53.013Z,10.90
2019-02-19T13:46:58.317Z,11.10
2019-02-19T13:52:10.461Z,11.30
2019-02-19T13:57:14.775Z,11.60
2019-02-19T14:02:19.051Z,11.50
2019-02-19T14:07:25.983Z,11.70
2019-02-19T14:12:31.189Z,11.90
2019-02-19T14:17:36.571Z,11.70
2019-02-19T14:23:07.923Z,11.90
2019-02-19T14:28:36.982Z,12.00
2019-02-19T14:34:06.342Z,12.20
2019-02-19T14:39:34.447Z,12.00
2019-02-19T14:44:53.331Z,12.00
2019-02-19T14:50:10.271Z,12.20
2019-02-19T14:55:28.174Z,12.30
2019-02-19T15:01:09.213Z,12.40
2019-02-19T15:06:30.917Z,12.30
2019-02-19T15:11:55.717Z,12.30
2019-02-19T15:17:21.035Z,12.20
2019-02-19T15:22:44.839Z,12.10
2019-02-19T15:28:14.185Z,12.10
2019-02-19T15:33:48.872Z,12.40
2019-02-19T15:39:27.865Z,12.40
2019-02-19T15:44:53.825Z,12.40
2019-02-19T15:50:19.431Z,12.40
2019-02-19T15:55:44.623Z,12.10
2019-02-19T16:01:10.069Z,12.00
2019-02-19T16:06:39.863Z,12.00
2019-02-19T16:12:08.399Z,11.90
2019-02-19T16:17:32.541Z,11.90
2019-02-19T16:22:52.801Z,11.90
2019-02-19T16:28:25.560Z,12.00
2019-02-19T16:34:06.911Z,11.80
2019-02-19T16:39:43.089Z,11.80
2019-02-19T16:45:08.541Z,11.60
2019-02-19T16:50:34.333Z,11.40
2019-02-19T16:56:14.541Z,11.30
2019-02-19T17:01:46.467Z,11.10
2019-02-19T17:07:15.472Z,10.90
2019-02-19T17:12:40.070Z,10.60
2019-02-19T17:18:12.542Z,10.60
2019-02-19T17:23:35.300Z,10.60
2019-02-19T17:29:08.951Z,10.40
2019-02-19T17:34:55.084Z,10.20
2019-02-19T17:40:16.141Z,9.90
2019-02-19T17:45:38.889Z,9.70
2019-02-19T17:51:08.204Z,9.60
2019-02-19T17:56:39.227Z,9.40
2019-02-19T18:02:09.775Z,9.10
2019-02-19T18:07:43.649Z,9.00
2019-02-19T18:12:55.805Z,8.90
2019-02-19T18:18:11.387Z,8.80
2019-02-19T18:23:17.351Z,8.70
2019-02-19T18:28:22.305Z,8.50
2019-02-19T18:33:27.290Z,8.40
2019-02-19T18:38:33.916Z,8.20
2019-02-19T18:43:42.491Z,8.20
2019-02-19T18:48:48.455Z,8.00
2019-02-19T18:53:53.441Z,7.90
2019-02-19T18:58:58.667Z,7.90
2019-02-19T19:04:03.435Z,7.80
2019-02-19T19:09:08.601Z,7.70
2019-02-19T19:14:14.621Z,7.70
2019-02-19T19:19:19.810Z,7.60
2019-02-19T19:24:25.003Z,7.50
2019-02-19T19:29:30.218Z,7.40
2019-02-19T19:34:34.509Z,7.30
2019-02-19T19:39:39.707Z,7.20
2019-02-19T19:44:45.141Z,7.20
2019-02-19T19:49:51.523Z,7.10
2019-02-19T19:54:56.731Z,7.20
2019-02-19T20:00:01.841Z,7.10
2019-02-19T20:05:11.289Z,7.10
2019-02-19T20:10:15.415Z,7.00
2019-02-19T20:15:18.787Z,6.90
2019-02-19T20:20:22.857Z,6.90
2019-02-19T20:25:26.637Z,6.90
2019-02-19T20:30:31.824Z,6.90
2019-02-19T20:35:37.228Z,6.90
2019-02-19T20:40:42.641Z,6.80
2019-02-19T20:45:48.003Z,7.00
2019-02-19T20:50:52.265Z,6.90
2019-02-19T20:55:56.667Z,6.80
2019-02-19T21:01:00.135Z,6.60
2019-02-19T21:06:03.754Z,6.50
2019-02-19T21:11:07.812Z,6.30
2019-02-19T21:16:13.040Z,6.30
2019-02-19T21:21:17.351Z,6.20
2019-02-19T21:26:21.697Z,6.20
2019-02-19T21:31:25.967Z,6.30
2019-02-19T21:36:30.265Z,6.40
2019-02-19T21:41:34.771Z,6.30
2019-02-19T21:46:41.089Z,6.30
2019-02-19T21:51:53.973Z,6.40
2019-02-19T21:56:54.396Z,6.30
2019-02-19T22:01:57.802Z,6.10
2019-02-19T22:07:02.202Z,6.00
2019-02-19T22:12:07.184Z,5.80
2019-02-19T22:17:11.279Z,5.60
2019-02-19T22:22:22.633Z,5.50
2019-02-19T22:27:27.921Z,5.40
2019-02-19T22:32:33.431Z,5.40
2019-02-19T22:37:39.409Z,5.30
2019-02-19T22:42:44.835Z,5.40
2019-02-19T22:47:53.412Z,5.50
2019-02-19T22:52:59.558Z,5.50
2019-02-19T22:58:04.848Z,5.40
2019-02-19T23:03:10.071Z,5.40
2019-02-19T23:08:16.006Z,5.20
2019-02-19T23:13:21.269Z,5.20
2019-02-19T23:18:26.421Z,4.90
2019-02-19T23:23:31.795Z,4.90
2019-02-19T23:28:37.246Z,4.80
2019-02-19T23:33:42.547Z,4.80
2019-02-19T23:38:48.117Z,4.90
2019-02-19T23:43:53.564Z,4.70
2019-02-19T23:48:58.615Z,4.80
2019-02-19T23:54:04.921Z,4.70
2019-02-19T23:59:10.621Z,4.70
